createdAt,value
2019-04-27T00:00:59.312Z,15.76
2019-04-27T00:03:47.307Z,15.77
2019-04-27T00:06:16.858Z,15.74
2019-04-27T00:08:48.712Z,15.66
2019-04-27T00:11:45.443Z,15.66
2019-04-27T00:14:15.029Z,15.63
2019-04-27T00:17:03.824Z,15.61
2019-04-27T00:19:50.381Z,15.57
2019-04-27T00:22:30.073Z,15.48
2019-04-27T00:24:59.119Z,15.41
2019-04-27T00:27:28.136Z,15.37
2019-04-27T00:29:57.167Z,15.31
2019-04-27T00:32:26.235Z,15.30
2019-04-27T00:34:55.209Z,15.25
2019-04-27T00:37:48.425Z,15.21
2019-04-27T00:40:43.615Z,15.17
2019-04-27T00:43:14.046Z,15.10
2019-04-27T00:45:43.676Z,15.09
2019-04-27T00:48:15.696Z,15.05
2019-04-27T00:50:44.773Z,15.02
2019-04-27T00:53:13.875Z,14.97
2019-04-27T00:56:04.740Z,14.93
2019-04-27T00:58:40.285Z,14.89
2019-04-27T01:01:15.025Z,14.83
2019-04-27T01:04:03.790Z,14.81
2019-04-27T01:06:33.640Z,14.77
2019-04-27T01:09:03.526Z,14.75
2019-04-27T01:11:33.373Z,14.71
2019-04-27T01:14:03.866Z,14.70
2019-04-27T01:16:32.978Z,14.69
2019-04-27T01:19:02.045Z,14.65
2019-04-27T01:21:31.228Z,14.65
2019-04-27T01:24:00.245Z,14.64
2019-04-27T01:26:51.181Z,14.63
2019-04-27T01:29:21.956Z,14.61
2019-04-27T01:31:51.057Z,14.57
2019-04-27T01:34:20.105Z,14.54
2019-04-27T01:36:49.359Z,14.49
2019-04-27T01:39:18.942Z,14.47
2019-04-27T01:41:49.141Z,14.47
2019-04-27T01:44:19.382Z,14.47
2019-04-27T01:46:48.769Z,14.46
2019-04-27T01:49:19.408Z,14.42
2019-04-27T01:51:49.219Z,14.44
2019-04-27T01:54:20.109Z,14.44
2019-04-27T01:56:49.373Z,14.45
2019-04-27T01:59:19.892Z,14.42
2019-04-27T02:02:06.916Z,14.41
2019-04-27T02:04:59.410Z,14.38
2019-04-27T02:07:30.028Z,14.34
2019-04-27T02:09:59.307Z,14.34
2019-04-27T02:12:29.152Z,14.35
2019-04-27T02:14:59.144Z,14.36
2019-04-27T02:17:28.818Z,14.36
2019-04-27T02:19:59.514Z,14.39
2019-04-27T02:22:29.692Z,14.40
2019-04-27T02:24:59.187Z,14.46
2019-04-27T02:27:30.125Z,14.48
2019-04-27T02:30:36.632Z,14.48
2019-04-27T02:33:16.165Z,14.46
2019-04-27T02:35:45.215Z,14.41
2019-04-27T02:38:14.315Z,14.48
2019-04-27T02:40:53.859Z,14.48
2019-04-27T02:43:25.925Z,14.49
2019-04-27T02:45:55.007Z,14.46
2019-04-27T02:48:24.038Z,14.48
2019-04-27T02:50:55.310Z,14.47
2019-04-27T02:53:42.083Z,14.48
2019-04-27T02:56:11.155Z,14.46
2019-04-27T02:58:40.755Z,14.40
2019-04-27T03:01:10.193Z,14.38
2019-04-27T03:03:41.189Z,14.39
2019-04-27T03:06:10.065Z,14.39
2019-04-27T03:08:42.415Z,14.40
2019-04-27T03:11:10.203Z,14.36
2019-04-27T03:13:59.848Z,14.33
2019-04-27T03:16:43.081Z,14.36
2019-04-27T03:19:31.682Z,14.32
2019-04-27T03:22:09.711Z,14.26
2019-04-27T03:24:56.621Z,14.27
2019-04-27T03:27:29.701Z,14.21
2019-04-27T03:29:59.772Z,14.16
2019-04-27T03:32:31.354Z,14.13
2019-04-27T03:35:02.711Z,14.14
2019-04-27T03:37:30.629Z,14.16
2019-04-27T03:40:00.264Z,14.12
2019-04-27T03:42:29.796Z,14.11
2019-04-27T03:45:00.603Z,14.09
2019-04-27T03:47:30.717Z,14.06
2019-04-27T03:50:00.344Z,14.02
2019-04-27T03:52:44.283Z,13.96
2019-04-27T03:55:19.541Z,13.97
2019-04-27T03:57:54.105Z,13.99
2019-04-27T04:00:25.396Z,13.92
2019-04-27T04:02:54.484Z,13.95
2019-04-27T04:05:23.603Z,13.93
2019-04-27T04:07:52.644Z,13.96
2019-04-27T04:10:22.558Z,13.96
2019-04-27T04:13:00.904Z,13.96
2019-04-27T04:15:52.318Z,13.92
2019-04-27T04:18:21.753Z,13.93
2019-04-27T04:20:50.871Z,13.94
2019-04-27T04:23:20.635Z,13.92
2019-04-27T04:25:50.231Z,13.90
2019-04-27T04:28:20.161Z,13.91
2019-04-27T04:30:50.259Z,13.89
2019-04-27T04:33:20.691Z,13.89
2019-04-27T04:35:50.115Z,13.93
2019-04-27T04:38:20.568Z,13.95
2019-04-27T04:40:56.424Z,13.99
2019-04-27T04:43:33.992Z,13.99
2019-04-27T04:46:22.942Z,14.05
2019-04-27T04:48:51.425Z,14.03
2019-04-27T04:51:20.791Z,14.06
2019-04-27T04:53:51.914Z,14.09
2019-04-27T04:56:20.738Z,14.15
2019-04-27T04:58:49.856Z,14.22
2019-04-27T05:01:19.653Z,14.27
2019-04-27T05:03:48.964Z,14.28
2019-04-27T05:06:19.004Z,14.34
2019-04-27T05:08:49.379Z,14.43
2019-04-27T05:11:19.578Z,14.50
2019-04-27T05:13:49.411Z,14.52
2019-04-27T05:16:19.011Z,14.54
2019-04-27T05:18:49.543Z,14.56
2019-04-27T05:21:24.591Z,14.58
2019-04-27T05:23:53.634Z,14.64
2019-04-27T05:26:22.821Z,14.64
2019-04-27T05:28:51.839Z,14.70
2019-04-27T05:31:20.927Z,14.72
2019-04-27T05:33:49.980Z,14.79
2019-04-27T05:36:19.402Z,14.82
2019-04-27T05:38:49.816Z,14.88
2019-04-27T05:41:19.066Z,14.91
2019-04-27T05:44:07.744Z,15.05
2019-04-27T06:49:45.348Z,14.99
2019-04-27T06:52:14.650Z,15.04
2019-04-27T06:54:45.389Z,15.03
2019-04-27T06:57:14.588Z,15.12
2019-04-27T06:59:43.802Z,15.12
2019-04-27T07:02:13.206Z,15.08
2019-04-27T07:04:42.522Z,15.03
2019-04-27T07:07:11.639Z,14.96
2019-04-27T07:09:40.810Z,14.89
2019-04-27T07:12:10.234Z,14.82
2019-04-27T07:14:51.759Z,14.78
2019-04-27T07:17:10.493Z,14.74
2019-04-27T07:19:39.862Z,14.67
2019-04-27T07:22:11.395Z,14.66
2019-04-27T07:24:40.644Z,14.61
2019-04-27T07:27:09.979Z,14.50
2019-04-27T07:29:44.567Z,14.51
2019-04-27T07:32:12.105Z,14.46
2019-04-27T07:34:43.598Z,14.40
2019-04-27T08:13:14.095Z,15.18
2019-04-27T08:15:43.401Z,15.18
2019-04-27T08:18:12.673Z,15.22
2019-04-27T08:20:41.926Z,15.31
2019-04-27T08:23:11.094Z,15.37
2019-04-27T08:25:40.371Z,15.45
2019-04-27T08:28:33.558Z,15.59
2019-04-27T08:31:09.080Z,15.65
2019-04-27T08:33:38.933Z,15.68
2019-04-27T08:36:08.988Z,15.73
2019-04-27T08:38:38.961Z,14.37
2019-04-27T08:41:09.011Z,15.92
2019-04-27T08:43:38.990Z,15.98
2019-04-27T08:46:08.821Z,15.99
2019-04-27T08:48:39.299Z,15.96
2019-04-27T08:51:09.567Z,15.92
2019-04-27T08:53:39.794Z,14.85
2019-04-27T08:56:09.341Z,15.75
2019-04-27T08:58:38.759Z,15.71
2019-04-27T09:01:09.985Z,15.72
2019-04-27T09:03:39.524Z,15.63
2019-04-27T09:06:10.652Z,15.50
2019-04-27T09:08:51.370Z,15.47
2019-04-27T09:11:42.422Z,15.41
2019-04-27T09:14:31.936Z,15.41
2019-04-27T09:17:05.566Z,15.38
2019-04-27T09:20:05.539Z,15.37
2019-04-27T09:22:34.715Z,15.39
2019-04-27T09:25:03.879Z,15.38
2019-04-27T09:27:32.992Z,15.40
2019-04-27T09:30:02.099Z,15.49
2019-04-27T09:32:31.497Z,15.69
2019-04-27T09:35:01.164Z,15.87
2019-04-27T09:37:32.495Z,16.14
2019-04-27T09:40:01.873Z,16.40
2019-04-27T09:42:38.136Z,16.56
2019-04-27T09:45:06.652Z,16.65
2019-04-27T09:47:38.845Z,16.74
2019-04-27T09:50:06.963Z,16.90
2019-04-27T09:52:36.170Z,17.14
2019-04-27T09:55:06.690Z,17.40
2019-04-27T09:57:36.543Z,17.73
2019-04-27T10:00:07.162Z,17.98
2019-04-27T10:02:36.682Z,18.81
2019-04-27T10:05:06.733Z,18.96
2019-04-27T10:07:35.933Z,18.80
2019-04-27T10:10:06.489Z,18.52
2019-04-27T10:12:36.857Z,18.27
2019-04-27T10:15:06.274Z,17.78
2019-04-27T10:17:35.391Z,17.40
2019-04-27T10:20:05.965Z,17.02
2019-04-27T10:22:41.110Z,16.67
2019-04-27T10:25:08.425Z,16.46
2019-04-27T10:27:37.649Z,16.35
2019-04-27T10:30:07.424Z,16.30
2019-04-27T10:32:36.523Z,16.33
2019-04-27T10:35:07.576Z,16.36
2019-04-27T10:37:36.868Z,16.41
2019-04-27T10:40:06.322Z,16.43
2019-04-27T10:42:35.952Z,16.52
2019-04-27T10:45:06.425Z,16.66
2019-04-27T10:47:36.083Z,16.82
2019-04-27T10:50:05.942Z,16.97
2019-04-27T10:52:35.263Z,17.03
2019-04-27T10:55:05.967Z,17.13
2019-04-27T10:57:35.290Z,17.23
2019-04-27T11:00:06.565Z,17.26
2019-04-27T11:02:35.644Z,17.28
2019-04-27T11:05:31.198Z,17.30
2019-04-27T11:08:01.515Z,17.28
2019-04-27T11:10:30.725Z,17.24
2019-04-27T11:12:59.892Z,17.24
2019-04-27T11:15:29.225Z,17.33
2019-04-27T11:17:58.376Z,17.45
2019-04-27T11:20:27.912Z,17.57
2019-04-27T11:23:07.237Z,17.80
2019-04-27T11:25:28.211Z,18.04
2019-04-27T11:27:57.874Z,18.28
2019-04-27T11:30:27.142Z,18.41
2019-04-27T11:32:58.972Z,18.51
2019-04-27T11:35:46.916Z,18.55
2019-04-27T11:38:16.731Z,18.48
2019-04-27T11:40:46.650Z,18.43
2019-04-27T11:43:16.156Z,18.32
2019-04-27T11:45:45.821Z,18.16
2019-04-27T11:48:16.137Z,17.97
2019-04-27T11:50:45.995Z,17.79
2019-04-27T11:53:22.623Z,17.67
2019-04-27T11:55:46.769Z,17.55
2019-04-27T11:58:16.497Z,17.39
2019-04-27T12:00:45.687Z,17.23
2019-04-27T12:03:16.630Z,17.05
2019-04-27T12:05:46.541Z,16.90
2019-04-27T12:08:17.293Z,16.80
2019-04-27T12:10:48.365Z,16.76
2019-04-27T12:13:21.268Z,16.76
2019-04-27T12:15:51.270Z,16.78
2019-04-27T12:18:21.394Z,16.77
2019-04-27T12:20:50.989Z,16.79
2019-04-27T12:23:32.776Z,16.73
2019-04-27T12:25:51.404Z,16.64
2019-04-27T12:28:36.614Z,16.58
2019-04-27T12:31:22.174Z,16.45
2019-04-27T12:33:51.582Z,16.44
2019-04-27T12:36:20.827Z,16.76
2019-04-27T12:38:50.425Z,17.31
2019-04-27T12:41:20.300Z,17.83
2019-04-27T12:43:49.851Z,18.44
2019-04-27T12:46:19.609Z,18.89
2019-04-27T12:48:48.986Z,19.21
2019-04-27T12:51:21.834Z,19.38
2019-04-27T12:54:05.869Z,19.50
2019-04-27T12:57:01.459Z,19.52
2019-04-27T12:59:51.188Z,19.50
2019-04-27T13:02:23.477Z,19.49
2019-04-27T13:04:56.787Z,19.43
2019-04-27T13:07:26.710Z,19.42
2019-04-27T13:09:56.466Z,19.39
2019-04-27T13:12:27.302Z,19.31
2019-04-27T13:14:57.311Z,19.33
2019-04-27T13:17:29.235Z,19.23
2019-04-27T13:19:58.421Z,19.22
2019-04-27T13:22:27.783Z,19.07
2019-04-27T13:24:56.951Z,18.97
2019-04-27T13:27:26.985Z,18.98
2019-04-27T13:29:57.407Z,18.99
2019-04-27T13:32:26.902Z,18.95
2019-04-27T13:34:56.732Z,18.93
2019-04-27T13:37:36.546Z,18.98
2019-04-27T13:40:09.482Z,18.99
2019-04-27T13:42:53.703Z,18.88
2019-04-27T13:45:46.482Z,18.81
2019-04-27T13:48:46.737Z,18.87
2019-04-27T13:51:25.635Z,18.89
2019-04-27T13:53:54.909Z,18.79
2019-04-27T13:56:24.241Z,18.79
2019-04-27T13:58:53.433Z,18.90
2019-04-27T14:01:22.640Z,19.08
2019-04-27T14:03:51.896Z,19.31
2019-04-27T14:06:21.062Z,19.54
2019-04-27T14:08:50.218Z,19.60
2019-04-27T14:11:19.427Z,19.63
2019-04-27T14:13:48.701Z,19.64
2019-04-27T14:16:18.988Z,19.49
2019-04-27T14:18:48.332Z,19.28
2019-04-27T14:21:21.188Z,19.26
2019-04-27T14:23:50.481Z,19.25
2019-04-27T14:26:19.630Z,19.17
2019-04-27T14:28:49.969Z,18.93
2019-04-27T14:31:19.327Z,18.99
2019-04-27T14:33:48.645Z,19.04
2019-04-27T14:36:18.316Z,19.15
2019-04-27T14:38:48.232Z,19.21
2019-04-27T14:41:19.235Z,19.27
2019-04-27T14:44:05.008Z,19.25
2019-04-27T14:46:19.494Z,19.27
2019-04-27T14:48:48.631Z,19.36
2019-04-27T14:51:18.731Z,19.47
2019-04-27T14:53:48.887Z,19.62
2019-04-27T14:56:18.249Z,19.76
2019-04-27T14:58:47.357Z,19.78
2019-04-27T15:01:16.695Z,19.73
2019-04-27T15:03:45.804Z,19.69
2019-04-27T15:06:15.914Z,19.67
2019-04-27T15:08:47.078Z,19.64
2019-04-27T15:11:19.261Z,19.60
2019-04-27T15:13:49.990Z,19.53
2019-04-27T15:16:17.696Z,19.50
2019-04-27T15:18:51.838Z,19.45
2019-04-27T15:21:20.953Z,19.39
2019-04-27T15:23:50.141Z,19.36
2019-04-27T15:26:21.843Z,19.32
2019-04-27T15:28:52.300Z,19.29
2019-04-27T15:31:39.038Z,19.29
2019-04-27T15:34:15.636Z,19.20
2019-04-27T15:37:03.664Z,19.14
2019-04-27T15:40:08.629Z,19.01
2019-04-27T15:42:35.647Z,18.75
2019-04-27T15:45:08.967Z,18.28
2019-04-27T15:47:38.466Z,17.95
2019-04-27T15:50:08.970Z,17.46
2019-04-27T15:52:38.386Z,17.50
2019-04-27T15:55:30.827Z,17.51
2019-04-27T15:57:42.293Z,17.63
2019-04-27T16:00:17.190Z,17.87
2019-04-27T16:02:44.430Z,18.10
2019-04-27T16:05:13.050Z,18.28
2019-04-27T16:07:42.214Z,18.40
2019-04-27T16:10:11.254Z,18.50
2019-04-27T16:12:50.372Z,18.61
2019-04-27T16:15:13.422Z,18.64
2019-04-27T16:17:48.640Z,18.60
2019-04-27T16:20:22.537Z,18.53
2019-04-27T16:22:48.778Z,18.45
2019-04-27T16:25:18.641Z,18.36
2019-04-27T16:27:48.979Z,18.33
2019-04-27T16:30:20.494Z,18.30
2019-04-27T16:32:49.239Z,18.27
2019-04-27T16:35:22.963Z,18.22
2019-04-27T16:38:12.134Z,18.13
2019-04-27T16:40:41.238Z,18.05
2019-04-27T16:43:10.601Z,17.95
2019-04-27T16:45:39.881Z,17.94
2019-04-27T16:48:09.254Z,17.91
2019-04-27T16:50:39.052Z,17.20
2019-04-27T16:53:09.787Z,17.78
2019-04-27T16:55:39.151Z,17.59
2019-04-27T16:58:09.738Z,17.47
2019-04-27T17:00:40.939Z,17.43
2019-04-27T17:03:10.205Z,17.34
2019-04-27T17:05:39.353Z,17.29
2019-04-27T17:08:14.279Z,17.16
2019-04-27T17:10:39.513Z,17.03
2019-04-27T17:13:14.604Z,16.89
2019-04-27T17:16:08.667Z,16.80
2019-04-27T17:18:45.839Z,16.74
2019-04-27T17:21:18.874Z,16.59
2019-04-27T17:23:45.708Z,16.54
2019-04-27T17:26:21.764Z,16.50
2019-04-27T17:28:51.322Z,16.47
2019-04-27T17:31:23.507Z,16.44
2019-04-27T17:33:58.645Z,16.38
2019-04-27T17:36:29.257Z,16.33
2019-04-27T17:38:59.418Z,16.29
2019-04-27T17:41:28.506Z,16.24
2019-04-27T17:43:59.083Z,16.24
2019-04-27T17:46:28.328Z,16.26
2019-04-27T17:49:00.016Z,16.27
2019-04-27T17:51:30.960Z,16.23
2019-04-27T17:54:03.045Z,16.21
2019-04-27T17:56:38.226Z,16.19
2019-04-27T17:59:10.300Z,16.21
2019-04-27T18:01:40.897Z,16.19
2019-04-27T18:04:19.227Z,16.23
2019-04-27T18:06:48.729Z,16.26
2019-04-27T18:09:22.685Z,16.27
2019-04-27T18:12:00.523Z,16.28
2019-04-27T18:14:32.748Z,16.32
2019-04-27T18:17:03.633Z,16.32
2019-04-27T18:19:40.278Z,16.31
2019-04-27T18:22:09.257Z,16.29
2019-04-27T18:24:49.420Z,16.27
2019-04-27T18:27:33.575Z,16.23
2019-04-27T18:30:19.046Z,16.23
2019-04-27T18:32:48.950Z,16.23
2019-04-27T18:35:20.034Z,16.22
2019-04-27T18:37:49.195Z,16.23
2019-04-27T18:40:19.552Z,16.21
2019-04-27T18:42:48.633Z,16.17
2019-04-27T18:45:18.423Z,16.03
2019-04-27T18:47:51.314Z,15.94
2019-04-27T18:50:28.269Z,15.83
2019-04-27T18:53:09.613Z,15.71
2019-04-27T18:55:38.792Z,15.52
2019-04-27T18:58:09.100Z,15.32
2019-04-27T19:00:38.270Z,15.20
2019-04-27T19:03:09.320Z,15.06
2019-04-27T19:05:40.513Z,14.95
2019-04-27T19:08:09.014Z,14.87
2019-04-27T19:10:38.404Z,14.77
2019-04-27T19:13:08.769Z,14.74
2019-04-27T19:15:38.610Z,14.70
2019-04-27T19:18:08.472Z,14.69
2019-04-27T19:20:39.038Z,14.65
2019-04-27T19:23:08.819Z,14.62
2019-04-27T19:25:58.537Z,14.61
2019-04-27T19:29:05.312Z,14.63
2019-04-27T19:31:38.293Z,14.63
2019-04-27T19:34:07.377Z,14.56
2019-04-27T19:36:38.611Z,14.55
2019-04-27T19:39:08.773Z,14.57
2019-04-27T19:41:37.979Z,14.57
2019-04-27T19:44:09.911Z,14.58
2019-04-27T19:46:37.941Z,14.58
2019-04-27T19:49:08.775Z,14.58
2019-04-27T19:51:39.180Z,14.58
2019-04-27T19:54:09.049Z,14.58
2019-04-27T19:56:38.480Z,14.55
2019-04-27T19:59:13.830Z,14.53
2019-04-27T20:01:45.569Z,14.52
2019-04-27T20:04:23.827Z,14.53
2019-04-27T20:06:52.985Z,14.55
2019-04-27T20:09:45.190Z,14.54
2019-04-27T20:12:14.298Z,14.55
2019-04-27T20:14:59.304Z,14.54
2019-04-27T20:17:31.182Z,14.55
2019-04-27T20:20:00.698Z,14.54
2019-04-27T20:22:29.867Z,14.54
2019-04-27T20:24:58.922Z,14.52
2019-04-27T20:27:27.998Z,14.52
2019-04-27T20:29:57.172Z,14.53
2019-04-27T20:32:26.396Z,14.53
2019-04-27T20:34:55.498Z,14.51
2019-04-27T20:37:24.644Z,14.52
2019-04-27T20:39:53.736Z,14.51
2019-04-27T20:42:22.775Z,14.51
2019-04-27T20:44:51.935Z,14.49
2019-04-27T20:47:21.216Z,14.49
2019-04-27T20:49:50.374Z,14.48
2019-04-27T20:52:41.571Z,14.46
2019-04-27T20:55:11.367Z,14.44
2019-04-27T20:57:41.679Z,14.45
2019-04-27T21:00:13.533Z,14.46
2019-04-27T21:03:01.965Z,14.49
2019-04-27T21:06:02.764Z,14.51
2019-04-27T21:08:33.587Z,14.53
2019-04-27T21:11:02.714Z,14.53
2019-04-27T21:13:31.798Z,14.56
2019-04-27T21:16:02.252Z,14.57
2019-04-27T21:18:31.892Z,14.56
2019-04-27T21:21:01.374Z,14.58
2019-04-27T21:23:31.206Z,14.58
2019-04-27T21:26:02.159Z,14.59
2019-04-27T21:28:32.163Z,14.61
2019-04-27T21:31:01.253Z,14.58
2019-04-27T21:33:31.824Z,14.58
2019-04-27T21:36:01.464Z,14.57
2019-04-27T21:38:30.617Z,14.58
2019-04-27T21:40:59.765Z,14.57
2019-04-27T21:43:28.837Z,14.56
2019-04-27T21:45:57.926Z,14.55
2019-04-27T21:48:27.041Z,14.52
2019-04-27T21:50:56.142Z,14.54
2019-04-27T21:53:46.953Z,14.56
2019-04-27T21:56:16.048Z,14.56
2019-04-27T21:58:45.130Z,14.56
2019-04-27T22:01:32.010Z,14.56
2019-04-27T22:04:01.261Z,14.55
2019-04-27T22:06:30.344Z,14.54
2019-04-27T22:09:01.179Z,14.54
2019-04-27T22:11:31.882Z,14.55
2019-04-27T22:14:01.388Z,14.53
2019-04-27T22:16:31.479Z,14.55
2019-04-27T22:19:01.947Z,14.51
2019-04-27T22:21:31.686Z,14.54
2019-04-27T22:24:21.253Z,14.52
2019-04-27T22:26:51.790Z,14.50
2019-04-27T22:29:22.173Z,14.48
2019-04-27T22:31:51.807Z,14.47
2019-04-27T22:34:24.467Z,14.39
2019-04-27T22:36:53.549Z,14.37
2019-04-27T22:39:37.963Z,14.33
2019-04-27T22:42:23.108Z,14.25
2019-04-27T22:44:54.783Z,14.22
2019-04-27T22:47:23.892Z,14.19
2019-04-27T22:49:53.034Z,14.19
2019-04-27T22:52:22.198Z,14.22
2019-04-27T22:54:51.454Z,14.26
2019-04-27T22:57:31.437Z,14.24
2019-04-27T23:00:09.129Z,14.23
2019-04-27T23:02:48.053Z,14.22
2019-04-27T23:05:17.170Z,14.23
2019-04-27T23:07:46.226Z,14.26
2019-04-27T23:10:16.187Z,14.24
2019-04-27T23:12:45.261Z,14.23
2019-04-27T23:15:17.855Z,14.21
2019-04-27T23:17:54.463Z,14.20
2019-04-27T23:20:23.647Z,14.20
2019-04-27T23:22:52.713Z,14.19
2019-04-27T23:25:21.780Z,14.18
2019-04-27T23:27:51.452Z,14.15
2019-04-27T23:30:22.303Z,14.16
2019-04-27T23:32:52.571Z,14.18
2019-04-27T23:35:21.689Z,14.19
2019-04-27T23:37:52.861Z,14.16
2019-04-27T23:40:21.985Z,14.16
2019-04-27T23:42:51.672Z,14.18
2019-04-27T23:45:22.489Z,14.14
2019-04-27T23:47:51.764Z,14.11
2019-04-27T23:50:21.909Z,14.11
2019-04-27T23:53:25.438Z,14.12
2019-04-27T23:55:54.552Z,14.12
2019-04-27T23:58:23.702Z,14.11
